sensor_id;sensor_type;location;lat;lon;timestamp;P1;durP1;ratioP1;P2;durP2;ratioP2
2123;SDS011;1068;52.460;13.528;2023-05-10T00:02:00;5.83;;;5.30;;
2123;SDS011;1068;52.460;13.528;2023-05-10T00:04:27;5.50;;;5.00;;
2123;SDS011;1068;52.460;13.528;2023-05-10T00:06:54;6.33;;;5.47;;
2123;SDS011;1068;52.460;13.528;2023-05-10T00:09:21;5.70;;;5.13;;
2123;SDS011;1068;52.460;13.528;2023-05-10T00:11:48;6.70;;;5.90;;
2123;SDS011;1068;52.460;13.528;2023-05-10T00:14:15;6.33;;;5.73;;
2123;SDS011;1068;52.460;13.528;2023-05-10T00:16:43;6.77;;;6.27;;
2123;SDS011;1068;52.460;13.528;2023-05-10T00:19:10;9.47;;;6.00;;
2123;SDS011;1068;52.460;13.528;2023-05-10T00:21:37;11.63;;;6.27;;
2123;SDS011;1068;52.460;13.528;2023-05-10T00:24:04;8.13;;;6.27;;
2123;SDS011;1068;52.460;13.528;2023-05-10T00:26:31;7.20;;;6.50;;
2123;SDS011;1068;52.460;13.528;2023-05-10T00:28:58;6.20;;;5.57;;
2123;SDS011;1068;52.460;13.528;2023-05-10T00:31:25;6.27;;;5.77;;
2123;SDS011;1068;52.460;13.528;2023-05-10T00:33:54;7.30;;;5.60;;
2123;SDS011;1068;52.460;13.528;2023-05-10T00:36:21;6.30;;;5.70;;
2123;SDS011;1068;52.460;13.528;2023-05-10T00:38:48;8.97;;;5.90;;
2123;SDS011;1068;52.460;13.528;2023-05-10T00:41:15;6.27;;;5.67;;
2123;SDS011;1068;52.460;13.528;2023-05-10T00:43:42;6.73;;;6.17;;
2123;SDS011;1068;52.460;13.528;2023-05-10T00:46:09;6.57;;;5.80;;
2123;SDS011;1068;52.460;13.528;2023-05-10T00:48:36;6.03;;;5.53;;
2123;SDS011;1068;52.460;13.528;2023-05-10T00:51:04;6.10;;;5.30;;
2123;SDS011;1068;52.460;13.528;2023-05-10T00:53:32;6.50;;;5.90;;
2123;SDS011;1068;52.460;13.528;2023-05-10T00:56:00;6.10;;;5.50;;
2123;SDS011;1068;52.460;13.528;2023-05-10T00:58:28;6.03;;;5.53;;
2123;SDS011;1068;52.460;13.528;2023-05-10T01:00:55;6.33;;;5.50;;
2123;SDS011;1068;52.460;13.528;2023-05-10T01:03:23;5.83;;;5.30;;
2123;SDS011;1068;52.460;13.528;2023-05-10T01:05:50;6.27;;;5.10;;
2123;SDS011;1068;52.460;13.528;2023-05-10T01:08:18;6.03;;;5.50;;
2123;SDS011;1068;52.460;13.528;2023-05-10T01:10:45;5.70;;;5.20;;
2123;SDS011;1068;52.460;13.528;2023-05-10T01:13:14;5.50;;;5.00;;
2123;SDS011;1068;52.460;13.528;2023-05-10T01:15:45;6.73;;;5.33;;
2123;SDS011;1068;52.460;13.528;2023-05-10T01:18:12;7.50;;;5.87;;
2123;SDS011;1068;52.460;13.528;2023-05-10T01:20:40;6.27;;;5.67;;
2123;SDS011;1068;52.460;13.528;2023-05-10T01:23:19;6.53;;;5.93;;
2123;SDS011;1068;52.460;13.528;2023-05-10T01:31:37;5.63;;;5.13;;
2123;SDS011;1068;52.460;13.528;2023-05-10T01:34:09;5.83;;;5.37;;
2123;SDS011;1068;52.460;13.528;2023-05-10T01:36:39;7.00;;;5.70;;
2123;SDS011;1068;52.460;13.528;2023-05-10T01:39:09;5.23;;;4.83;;
2123;SDS011;1068;52.460;13.528;2023-05-10T01:41:40;6.57;;;5.47;;
2123;SDS011;1068;52.460;13.528;2023-05-10T01:44:13;5.60;;;5.20;;
2123;SDS011;1068;52.460;13.528;2023-05-10T01:46:43;6.40;;;5.30;;
2123;SDS011;1068;52.460;13.528;2023-05-10T01:49:15;8.70;;;5.73;;
2123;SDS011;1068;52.460;13.528;2023-05-10T01:51:45;5.93;;;5.33;;
2123;SDS011;1068;52.460;13.528;2023-05-10T01:54:14;5.13;;;4.73;;
2123;SDS011;1068;52.460;13.528;2023-05-10T01:56:43;5.73;;;5.23;;
2123;SDS011;1068;52.460;13.528;2023-05-10T01:59:12;5.70;;;5.13;;
2123;SDS011;1068;52.460;13.528;2023-05-10T02:01:40;6.20;;;4.83;;
2123;SDS011;1068;52.460;13.528;2023-05-10T02:04:07;6.13;;;5.63;;
2123;SDS011;1068;52.460;13.528;2023-05-10T02:06:36;9.07;;;4.60;;
2123;SDS011;1068;52.460;13.528;2023-05-10T02:09:04;5.30;;;4.83;;
2123;SDS011;1068;52.460;13.528;2023-05-10T02:11:32;6.10;;;5.33;;
2123;SDS011;1068;52.460;13.528;2023-05-10T02:13:59;5.97;;;5.27;;
2123;SDS011;1068;52.460;13.528;2023-05-10T02:16:26;6.10;;;5.50;;
2123;SDS011;1068;52.460;13.528;2023-05-10T02:18:55;5.73;;;5.27;;
2123;SDS011;1068;52.460;13.528;2023-05-10T02:21:23;5.80;;;5.20;;
2123;SDS011;1068;52.460;13.528;2023-05-10T02:23:52;5.27;;;4.77;;
2123;SDS011;1068;52.460;13.528;2023-05-10T02:26:20;10.00;;;4.77;;
2123;SDS011;1068;52.460;13.528;2023-05-10T02:28:48;7.90;;;5.43;;
2123;SDS011;1068;52.460;13.528;2023-05-10T02:31:15;5.70;;;5.20;;
2123;SDS011;1068;52.460;13.528;2023-05-10T02:33:43;5.53;;;5.03;;
2123;SDS011;1068;52.460;13.528;2023-05-10T02:36:11;5.73;;;5.23;;
2123;SDS011;1068;52.460;13.528;2023-05-10T02:38:39;5.33;;;4.83;;
2123;SDS011;1068;52.460;13.528;2023-05-10T02:41:08;5.43;;;4.83;;
2123;SDS011;1068;52.460;13.528;2023-05-10T02:43:35;4.93;;;4.53;;
2123;SDS011;1068;52.460;13.528;2023-05-10T02:46:03;6.67;;;5.07;;
2123;SDS011;1068;52.460;13.528;2023-05-10T02:48:30;6.70;;;5.13;;
2123;SDS011;1068;52.460;13.528;2023-05-10T02:51:00;5.10;;;4.53;;
2123;SDS011;1068;52.460;13.528;2023-05-10T02:53:31;4.73;;;4.33;;
2123;SDS011;1068;52.460;13.528;2023-05-10T02:55:58;7.03;;;5.10;;
2123;SDS011;1068;52.460;13.528;2023-05-10T02:58:27;5.10;;;4.70;;
2123;SDS011;1068;52.460;13.528;2023-05-10T03:00:54;4.93;;;4.40;;
2123;SDS011;1068;52.460;13.528;2023-05-10T03:03:21;5.77;;;5.10;;
2123;SDS011;1068;52.460;13.528;2023-05-10T03:05:48;5.13;;;4.63;;
2123;SDS011;1068;52.460;13.528;2023-05-10T03:08:15;4.90;;;4.50;;
2123;SDS011;1068;52.460;13.528;2023-05-10T03:10:45;9.13;;;4.70;;
2123;SDS011;1068;52.460;13.528;2023-05-10T03:13:16;5.10;;;4.70;;
2123;SDS011;1068;52.460;13.528;2023-05-10T03:15:51;9.67;;;5.00;;
2123;SDS011;1068;52.460;13.528;2023-05-10T03:18:21;4.93;;;4.50;;
2123;SDS011;1068;52.460;13.528;2023-05-10T03:20:49;4.90;;;4.27;;
2123;SDS011;1068;52.460;13.528;2023-05-10T03:23:20;5.80;;;4.83;;
2123;SDS011;1068;52.460;13.528;2023-05-10T03:25:48;7.87;;;4.97;;
2123;SDS011;1068;52.460;13.528;2023-05-10T03:28:16;5.40;;;4.43;;
2123;SDS011;1068;52.460;13.528;2023-05-10T03:30:44;7.00;;;5.13;;
2123;SDS011;1068;52.460;13.528;2023-05-10T03:33:12;6.60;;;4.20;;
2123;SDS011;1068;52.460;13.528;2023-05-10T03:35:39;4.63;;;4.17;;
2123;SDS011;1068;52.460;13.528;2023-05-10T03:38:06;5.93;;;4.80;;
2123;SDS011;1068;52.460;13.528;2023-05-10T03:40:33;6.00;;;4.97;;
2123;SDS011;1068;52.460;13.528;2023-05-10T03:43:00;6.00;;;4.40;;
2123;SDS011;1068;52.460;13.528;2023-05-10T03:45:27;5.73;;;5.10;;
2123;SDS011;1068;52.460;13.528;2023-05-10T03:47:55;5.00;;;4.50;;
2123;SDS011;1068;52.460;13.528;2023-05-10T03:50:24;4.67;;;4.27;;
2123;SDS011;1068;52.460;13.528;2023-05-10T03:52:51;4.70;;;4.30;;
2123;SDS011;1068;52.460;13.528;2023-05-10T03:55:18;6.37;;;5.00;;
2123;SDS011;1068;52.460;13.528;2023-05-10T03:57:45;5.10;;;4.70;;
2123;SDS011;1068;52.460;13.528;2023-05-10T04:00:14;4.87;;;4.47;;
2123;SDS011;1068;52.460;13.528;2023-05-10T04:02:41;5.07;;;4.47;;
2123;SDS011;1068;52.460;13.528;2023-05-10T04:05:08;7.43;;;4.37;;
2123;SDS011;1068;52.460;13.528;2023-05-10T04:07:37;5.53;;;4.77;;
2123;SDS011;1068;52.460;13.528;2023-05-10T04:10:04;5.30;;;4.80;;
2123;SDS011;1068;52.460;13.528;2023-05-10T04:12:31;9.57;;;5.37;;
2123;SDS011;1068;52.460;13.528;2023-05-10T04:14:58;6.40;;;4.67;;
2123;SDS011;1068;52.460;13.528;2023-05-10T04:17:25;6.23;;;4.17;;
2123;SDS011;1068;52.460;13.528;2023-05-10T04:19:52;4.10;;;3.70;;
2123;SDS011;1068;52.460;13.528;2023-05-10T04:22:19;7.13;;;5.33;;
2123;SDS011;1068;52.460;13.528;2023-05-10T04:24:47;5.00;;;4.60;;
2123;SDS011;1068;52.460;13.528;2023-05-10T04:27:14;4.40;;;4.00;;
2123;SDS011;1068;52.460;13.528;2023-05-10T04:29:41;4.67;;;4.27;;
2123;SDS011;1068;52.460;13.528;2023-05-10T04:32:08;5.00;;;4.50;;
2123;SDS011;1068;52.460;13.528;2023-05-10T04:34:36;6.73;;;4.33;;
2123;SDS011;1068;52.460;13.528;2023-05-10T04:37:02;5.63;;;4.33;;
2123;SDS011;1068;52.460;13.528;2023-05-10T04:39:29;5.13;;;4.60;;
2123;SDS011;1068;52.460;13.528;2023-05-10T04:41:58;5.53;;;3.90;;
2123;SDS011;1068;52.460;13.528;2023-05-10T04:44:25;5.27;;;4.57;;
2123;SDS011;1068;52.460;13.528;2023-05-10T04:46:52;5.57;;;4.40;;
2123;SDS011;1068;52.460;13.528;2023-05-10T04:49:19;5.37;;;4.20;;
2123;SDS011;1068;52.460;13.528;2023-05-10T04:51:45;4.90;;;4.30;;
2123;SDS011;1068;52.460;13.528;2023-05-10T04:54:12;3.87;;;3.57;;
2123;SDS011;1068;52.460;13.528;2023-05-10T04:56:39;6.17;;;4.40;;
2123;SDS011;1068;52.460;13.528;2023-05-10T04:59:07;4.43;;;3.83;;
2123;SDS011;1068;52.460;13.528;2023-05-10T05:01:34;4.87;;;4.47;;
2123;SDS011;1068;52.460;13.528;2023-05-10T05:04:01;6.83;;;4.70;;
2123;SDS011;1068;52.460;13.528;2023-05-10T05:06:28;7.17;;;4.37;;
2123;SDS011;1068;52.460;13.528;2023-05-10T05:08:55;4.63;;;3.70;;
2123;SDS011;1068;52.460;13.528;2023-05-10T05:11:22;6.30;;;4.23;;
2123;SDS011;1068;52.460;13.528;2023-05-10T05:13:50;4.50;;;3.93;;
2123;SDS011;1068;52.460;13.528;2023-05-10T05:16:18;4.53;;;4.10;;
2123;SDS011;1068;52.460;13.528;2023-05-10T05:18:45;5.73;;;5.03;;
2123;SDS011;1068;52.460;13.528;2023-05-10T05:21:15;4.83;;;4.33;;
2123;SDS011;1068;52.460;13.528;2023-05-10T05:23:42;4.00;;;3.60;;
2123;SDS011;1068;52.460;13.528;2023-05-10T05:26:09;4.53;;;4.10;;
2123;SDS011;1068;52.460;13.528;2023-05-10T05:28:36;3.93;;;3.50;;
2123;SDS011;1068;52.460;13.528;2023-05-10T05:31:03;4.10;;;3.70;;
2123;SDS011;1068;52.460;13.528;2023-05-10T05:33:31;3.50;;;3.30;;
2123;SDS011;1068;52.460;13.528;2023-05-10T05:36:00;3.73;;;3.43;;
2123;SDS011;1068;52.460;13.528;2023-05-10T05:38:27;5.00;;;4.00;;
2123;SDS011;1068;52.460;13.528;2023-05-10T05:40:54;4.03;;;3.57;;
2123;SDS011;1068;52.460;13.528;2023-05-10T05:43:20;3.97;;;2.87;;
2123;SDS011;1068;52.460;13.528;2023-05-10T05:45:47;5.60;;;3.73;;
2123;SDS011;1068;52.460;13.528;2023-05-10T05:48:14;3.83;;;3.53;;
2123;SDS011;1068;52.460;13.528;2023-05-10T05:50:42;3.90;;;3.50;;
2123;SDS011;1068;52.460;13.528;2023-05-10T05:53:10;3.63;;;3.03;;
2123;SDS011;1068;52.460;13.528;2023-05-10T05:55:37;6.13;;;3.37;;
2123;SDS011;1068;52.460;13.528;2023-05-10T05:58:04;4.57;;;3.10;;
2123;SDS011;1068;52.460;13.528;2023-05-10T06:00:31;4.40;;;3.20;;
2123;SDS011;1068;52.460;13.528;2023-05-10T06:02:57;14.63;;;6.27;;
2123;SDS011;1068;52.460;13.528;2023-05-10T06:05:24;5.77;;;3.40;;
2123;SDS011;1068;52.460;13.528;2023-05-10T06:07:53;5.00;;;3.37;;
2123;SDS011;1068;52.460;13.528;2023-05-10T06:10:19;9.57;;;2.80;;
2123;SDS011;1068;52.460;13.528;2023-05-10T06:12:46;6.03;;;3.73;;
2123;SDS011;1068;52.460;13.528;2023-05-10T06:15:13;2.93;;;2.57;;
2123;SDS011;1068;52.460;13.528;2023-05-10T06:17:40;2.97;;;2.43;;
2123;SDS011;1068;52.460;13.528;2023-05-10T06:20:08;3.70;;;2.90;;
2123;SDS011;1068;52.460;13.528;2023-05-10T06:22:35;9.10;;;3.50;;
2123;SDS011;1068;52.460;13.528;2023-05-10T06:25:04;4.93;;;2.60;;
2123;SDS011;1068;52.460;13.528;2023-05-10T06:27:31;2.70;;;2.50;;
2123;SDS011;1068;52.460;13.528;2023-05-10T06:29:58;3.67;;;2.50;;
2123;SDS011;1068;52.460;13.528;2023-05-10T06:32:25;4.20;;;3.80;;
2123;SDS011;1068;52.460;13.528;2023-05-10T06:34:52;3.50;;;3.00;;
2123;SDS011;1068;52.460;13.528;2023-05-10T06:37:19;5.97;;;3.47;;
2123;SDS011;1068;52.460;13.528;2023-05-10T06:39:46;3.90;;;3.17;;
2123;SDS011;1068;52.460;13.528;2023-05-10T06:42:14;2.63;;;2.43;;
2123;SDS011;1068;52.460;13.528;2023-05-10T06:44:41;6.70;;;2.50;;
2123;SDS011;1068;52.460;13.528;2023-05-10T06:47:08;4.80;;;2.13;;
2123;SDS011;1068;52.460;13.528;2023-05-10T06:49:35;4.60;;;3.27;;
2123;SDS011;1068;52.460;13.528;2023-05-10T06:52:02;3.03;;;2.23;;
2123;SDS011;1068;52.460;13.528;2023-05-10T06:54:29;4.30;;;2.10;;
2123;SDS011;1068;52.460;13.528;2023-05-10T06:56:56;3.13;;;2.83;;
2123;SDS011;1068;52.460;13.528;2023-05-10T06:59:25;5.30;;;3.10;;
2123;SDS011;1068;52.460;13.528;2023-05-10T07:01:51;3.87;;;2.10;;
2123;SDS011;1068;52.460;13.528;2023-05-10T07:04:18;3.27;;;2.50;;
2123;SDS011;1068;52.460;13.528;2023-05-10T07:06:49;6.00;;;2.40;;
2123;SDS011;1068;52.460;13.528;2023-05-10T07:09:15;2.87;;;2.13;;
2123;SDS011;1068;52.460;13.528;2023-05-10T07:11:42;4.67;;;2.50;;
2123;SDS011;1068;52.460;13.528;2023-05-10T07:14:09;3.23;;;2.40;;
2123;SDS011;1068;52.460;13.528;2023-05-10T07:16:38;6.43;;;2.50;;
2123;SDS011;1068;52.460;13.528;2023-05-10T07:19:05;2.93;;;2.63;;
2123;SDS011;1068;52.460;13.528;2023-05-10T07:21:32;9.87;;;2.77;;
2123;SDS011;1068;52.460;13.528;2023-05-10T07:24:00;3.47;;;2.20;;
2123;SDS011;1068;52.460;13.528;2023-05-10T07:26:26;5.73;;;2.57;;
2123;SDS011;1068;52.460;13.528;2023-05-10T07:28:53;2.50;;;2.20;;
2123;SDS011;1068;52.460;13.528;2023-05-10T07:31:20;2.80;;;2.20;;
2123;SDS011;1068;52.460;13.528;2023-05-10T07:33:49;3.77;;;3.07;;
2123;SDS011;1068;52.460;13.528;2023-05-10T07:36:15;2.70;;;1.80;;
2123;SDS011;1068;52.460;13.528;2023-05-10T07:38:42;2.40;;;2.20;;
2123;SDS011;1068;52.460;13.528;2023-05-10T07:41:10;2.80;;;2.47;;
2123;SDS011;1068;52.460;13.528;2023-05-10T07:43:37;2.80;;;2.40;;
2123;SDS011;1068;52.460;13.528;2023-05-10T07:46:04;3.43;;;2.90;;
2123;SDS011;1068;52.460;13.528;2023-05-10T07:48:31;3.27;;;2.97;;
2123;SDS011;1068;52.460;13.528;2023-05-10T07:51:00;2.40;;;2.20;;
2123;SDS011;1068;52.460;13.528;2023-05-10T07:53:27;3.00;;;2.37;;
2123;SDS011;1068;52.460;13.528;2023-05-10T07:55:54;2.57;;;2.33;;
2123;SDS011;1068;52.460;13.528;2023-05-10T07:58:23;2.37;;;2.17;;
2123;SDS011;1068;52.460;13.528;2023-05-10T08:00:50;2.70;;;2.50;;
2123;SDS011;1068;52.460;13.528;2023-05-10T08:03:17;2.70;;;2.50;;
2123;SDS011;1068;52.460;13.528;2023-05-10T08:05:44;7.90;;;2.73;;
2123;SDS011;1068;52.460;13.528;2023-05-10T08:08:12;2.47;;;2.27;;
2123;SDS011;1068;52.460;13.528;2023-05-10T08:10:39;4.10;;;2.17;;
2123;SDS011;1068;52.460;13.528;2023-05-10T08:13:06;6.87;;;2.03;;
2123;SDS011;1068;52.460;13.528;2023-05-10T08:15:33;2.43;;;2.33;;
2123;SDS011;1068;52.460;13.528;2023-05-10T08:18:00;2.97;;;2.63;;
2123;SDS011;1068;52.460;13.528;2023-05-10T08:20:27;2.57;;;2.33;;
2123;SDS011;1068;52.460;13.528;2023-05-10T08:22:54;2.40;;;2.20;;
2123;SDS011;1068;52.460;13.528;2023-05-10T08:25:22;4.93;;;2.53;;
2123;SDS011;1068;52.460;13.528;2023-05-10T08:27:49;3.43;;;2.30;;
2123;SDS011;1068;52.460;13.528;2023-05-10T08:30:16;2.50;;;2.30;;
2123;SDS011;1068;52.460;13.528;2023-05-10T08:32:43;4.63;;;2.30;;
2123;SDS011;1068;52.460;13.528;2023-05-10T08:35:10;2.70;;;2.50;;
2123;SDS011;1068;52.460;13.528;2023-05-10T08:37:37;2.50;;;2.27;;
2123;SDS011;1068;52.460;13.528;2023-05-10T08:40:04;2.80;;;2.33;;
2123;SDS011;1068;52.460;13.528;2023-05-10T08:42:33;2.57;;;2.37;;
2123;SDS011;1068;52.460;13.528;2023-05-10T08:45:02;2.20;;;2.10;;
2123;SDS011;1068;52.460;13.528;2023-05-10T08:47:29;2.70;;;2.50;;
2123;SDS011;1068;52.460;13.528;2023-05-10T08:49:56;2.70;;;2.43;;
2123;SDS011;1068;52.460;13.528;2023-05-10T08:52:24;2.90;;;2.70;;
2123;SDS011;1068;52.460;13.528;2023-05-10T08:54:52;3.20;;;2.90;;
2123;SDS011;1068;52.460;13.528;2023-05-10T08:57:19;2.50;;;2.30;;
2123;SDS011;1068;52.460;13.528;2023-05-10T08:59:47;4.73;;;2.17;;
2123;SDS011;1068;52.460;13.528;2023-05-10T09:02:14;2.73;;;2.40;;
2123;SDS011;1068;52.460;13.528;2023-05-10T09:04:41;5.73;;;2.20;;
2123;SDS011;1068;52.460;13.528;2023-05-10T09:07:08;3.20;;;2.30;;
2123;SDS011;1068;52.460;13.528;2023-05-10T09:09:35;2.10;;;2.00;;
2123;SDS011;1068;52.460;13.528;2023-05-10T09:12:03;3.23;;;2.70;;
2123;SDS011;1068;52.460;13.528;2023-05-10T09:14:31;3.47;;;2.50;;
2123;SDS011;1068;52.460;13.528;2023-05-10T09:17:01;5.50;;;2.90;;
2123;SDS011;1068;52.460;13.528;2023-05-10T09:19:28;5.73;;;2.60;;
2123;SDS011;1068;52.460;13.528;2023-05-10T09:21:55;2.53;;;2.33;;
2123;SDS011;1068;52.460;13.528;2023-05-10T09:24:24;2.43;;;2.23;;
2123;SDS011;1068;52.460;13.528;2023-05-10T09:26:52;2.70;;;2.60;;
2123;SDS011;1068;52.460;13.528;2023-05-10T09:29:19;6.50;;;2.40;;
2123;SDS011;1068;52.460;13.528;2023-05-10T09:31:47;3.23;;;2.50;;
2123;SDS011;1068;52.460;13.528;2023-05-10T09:34:17;3.20;;;2.17;;
2123;SDS011;1068;52.460;13.528;2023-05-10T09:36:51;3.20;;;2.17;;
2123;SDS011;1068;52.460;13.528;2023-05-10T09:39:19;3.93;;;3.00;;
2123;SDS011;1068;52.460;13.528;2023-05-10T09:41:46;2.73;;;2.53;;
2123;SDS011;1068;52.460;13.528;2023-05-10T09:44:16;2.80;;;2.60;;
2123;SDS011;1068;52.460;13.528;2023-05-10T09:46:48;3.30;;;2.20;;
2123;SDS011;1068;52.460;13.528;2023-05-10T09:49:15;3.80;;;2.90;;
2123;SDS011;1068;52.460;13.528;2023-05-10T09:51:43;7.57;;;2.37;;
2123;SDS011;1068;52.460;13.528;2023-05-10T09:54:11;3.43;;;2.40;;
2123;SDS011;1068;52.460;13.528;2023-05-10T09:56:38;6.33;;;2.40;;
2123;SDS011;1068;52.460;13.528;2023-05-10T09:59:06;2.73;;;2.30;;
2123;SDS011;1068;52.460;13.528;2023-05-10T10:01:33;5.20;;;3.00;;
2123;SDS011;1068;52.460;13.528;2023-05-10T10:04:02;3.10;;;1.90;;
2123;SDS011;1068;52.460;13.528;2023-05-10T10:06:29;2.43;;;2.23;;
2123;SDS011;1068;52.460;13.528;2023-05-10T10:08:57;2.87;;;2.67;;
2123;SDS011;1068;52.460;13.528;2023-05-10T10:11:24;2.63;;;2.43;;
2123;SDS011;1068;52.460;13.528;2023-05-10T10:13:52;3.00;;;2.20;;
2123;SDS011;1068;52.460;13.528;2023-05-10T10:16:19;2.20;;;2.10;;
2123;SDS011;1068;52.460;13.528;2023-05-10T10:18:47;3.43;;;2.73;;
2123;SDS011;1068;52.460;13.528;2023-05-10T10:21:14;2.90;;;2.70;;
2123;SDS011;1068;52.460;13.528;2023-05-10T10:23:41;2.70;;;2.60;;
2123;SDS011;1068;52.460;13.528;2023-05-10T10:26:09;2.33;;;2.13;;
2123;SDS011;1068;52.460;13.528;2023-05-10T10:28:39;2.47;;;2.37;;
2123;SDS011;1068;52.460;13.528;2023-05-10T10:31:12;2.63;;;2.20;;
2123;SDS011;1068;52.460;13.528;2023-05-10T10:33:51;2.53;;;2.40;;
2123;SDS011;1068;52.460;13.528;2023-05-10T10:36:22;3.73;;;2.30;;
2123;SDS011;1068;52.460;13.528;2023-05-10T10:38:55;2.80;;;2.57;;
2123;SDS011;1068;52.460;13.528;2023-05-10T10:41:29;2.80;;;2.60;;
2123;SDS011;1068;52.460;13.528;2023-05-10T10:49:23;5.37;;;2.20;;
2123;SDS011;1068;52.460;13.528;2023-05-10T10:54:48;3.90;;;2.00;;
2123;SDS011;1068;52.460;13.528;2023-05-10T10:57:18;3.07;;;2.40;;
2123;SDS011;1068;52.460;13.528;2023-05-10T10:59:46;3.77;;;2.23;;
2123;SDS011;1068;52.460;13.528;2023-05-10T11:04:55;3.83;;;2.40;;
2123;SDS011;1068;52.460;13.528;2023-05-10T11:07:22;4.70;;;2.80;;
2123;SDS011;1068;52.460;13.528;2023-05-10T11:09:49;4.47;;;2.30;;
2123;SDS011;1068;52.460;13.528;2023-05-10T11:12:17;5.23;;;2.30;;
2123;SDS011;1068;52.460;13.528;2023-05-10T11:14:49;5.43;;;2.37;;
2123;SDS011;1068;52.460;13.528;2023-05-10T11:17:22;4.30;;;2.37;;
2123;SDS011;1068;52.460;13.528;2023-05-10T11:20:07;4.47;;;2.47;;
2123;SDS011;1068;52.460;13.528;2023-05-10T11:22:48;3.70;;;2.17;;
2123;SDS011;1068;52.460;13.528;2023-05-10T11:25:16;7.50;;;2.43;;
2123;SDS011;1068;52.460;13.528;2023-05-10T11:27:44;2.80;;;2.53;;
2123;SDS011;1068;52.460;13.528;2023-05-10T11:30:12;5.93;;;2.20;;
2123;SDS011;1068;52.460;13.528;2023-05-10T11:32:39;5.27;;;2.30;;
2123;SDS011;1068;52.460;13.528;2023-05-10T11:35:07;2.87;;;2.60;;
2123;SDS011;1068;52.460;13.528;2023-05-10T11:37:34;4.30;;;2.23;;
2123;SDS011;1068;52.460;13.528;2023-05-10T11:40:01;4.53;;;2.33;;
2123;SDS011;1068;52.460;13.528;2023-05-10T11:42:28;3.30;;;2.53;;
2123;SDS011;1068;52.460;13.528;2023-05-10T11:44:57;7.60;;;2.90;;
2123;SDS011;1068;52.460;13.528;2023-05-10T11:47:24;3.77;;;1.67;;
2123;SDS011;1068;52.460;13.528;2023-05-10T11:49:51;3.00;;;1.70;;
2123;SDS011;1068;52.460;13.528;2023-05-10T11:52:18;6.57;;;2.57;;
2123;SDS011;1068;52.460;13.528;2023-05-10T11:54:46;4.87;;;2.23;;
2123;SDS011;1068;52.460;13.528;2023-05-10T11:57:17;7.37;;;2.40;;
2123;SDS011;1068;52.460;13.528;2023-05-10T11:59:45;10.87;;;2.70;;
2123;SDS011;1068;52.460;13.528;2023-05-10T12:02:13;4.03;;;2.00;;
2123;SDS011;1068;52.460;13.528;2023-05-10T12:04:40;4.77;;;1.97;;
2123;SDS011;1068;52.460;13.528;2023-05-10T12:07:07;7.43;;;2.00;;
2123;SDS011;1068;52.460;13.528;2023-05-10T12:09:34;3.03;;;1.83;;
2123;SDS011;1068;52.460;13.528;2023-05-10T12:12:01;3.67;;;2.23;;
2123;SDS011;1068;52.460;13.528;2023-05-10T12:14:28;3.67;;;2.07;;
2123;SDS011;1068;52.460;13.528;2023-05-10T12:16:58;5.03;;;2.53;;
2123;SDS011;1068;52.460;13.528;2023-05-10T12:19:26;2.33;;;1.80;;
2123;SDS011;1068;52.460;13.528;2023-05-10T12:21:53;2.50;;;1.83;;
2123;SDS011;1068;52.460;13.528;2023-05-10T12:24:20;4.57;;;1.97;;
2123;SDS011;1068;52.460;13.528;2023-05-10T12:26:47;2.67;;;1.73;;
2123;SDS011;1068;52.460;13.528;2023-05-10T12:29:14;2.57;;;1.60;;
2123;SDS011;1068;52.460;13.528;2023-05-10T12:31:51;3.77;;;2.20;;
2123;SDS011;1068;52.460;13.528;2023-05-10T12:34:22;6.90;;;2.20;;
2123;SDS011;1068;52.460;13.528;2023-05-10T12:36:51;1.70;;;1.60;;
2123;SDS011;1068;52.460;13.528;2023-05-10T12:39:18;4.03;;;2.20;;
2123;SDS011;1068;52.460;13.528;2023-05-10T12:41:45;3.57;;;1.80;;
2123;SDS011;1068;52.460;13.528;2023-05-10T12:44:12;1.90;;;1.80;;
2123;SDS011;1068;52.460;13.528;2023-05-10T12:46:38;1.93;;;1.83;;
2123;SDS011;1068;52.460;13.528;2023-05-10T12:49:05;9.17;;;2.13;;
2123;SDS011;1068;52.460;13.528;2023-05-10T12:51:32;3.73;;;2.00;;
2123;SDS011;1068;52.460;13.528;2023-05-10T12:54:01;2.00;;;1.90;;
2123;SDS011;1068;52.460;13.528;2023-05-10T12:56:28;2.03;;;1.80;;
2123;SDS011;1068;52.460;13.528;2023-05-10T12:58:58;5.17;;;4.87;;
2123;SDS011;1068;52.460;13.528;2023-05-10T13:01:27;4.63;;;1.97;;
2123;SDS011;1068;52.460;13.528;2023-05-10T13:03:56;3.70;;;1.93;;
2123;SDS011;1068;52.460;13.528;2023-05-10T13:06:32;2.70;;;1.90;;
2123;SDS011;1068;52.460;13.528;2023-05-10T13:09:01;5.50;;;1.83;;
2123;SDS011;1068;52.460;13.528;2023-05-10T13:11:28;6.60;;;1.93;;
2123;SDS011;1068;52.460;13.528;2023-05-10T13:13:55;2.57;;;2.07;;
2123;SDS011;1068;52.460;13.528;2023-05-10T13:16:22;1.87;;;1.73;;
2123;SDS011;1068;52.460;13.528;2023-05-10T13:18:49;7.73;;;1.83;;
2123;SDS011;1068;52.460;13.528;2023-05-10T13:21:15;1.57;;;1.47;;
2123;SDS011;1068;52.460;13.528;2023-05-10T13:23:42;1.97;;;1.83;;
2123;SDS011;1068;52.460;13.528;2023-05-10T13:26:11;5.43;;;1.67;;
2123;SDS011;1068;52.460;13.528;2023-05-10T13:28:41;2.47;;;1.67;;
2123;SDS011;1068;52.460;13.528;2023-05-10T13:31:13;7.53;;;1.90;;
2123;SDS011;1068;52.460;13.528;2023-05-10T13:33:40;4.47;;;1.80;;
2123;SDS011;1068;52.460;13.528;2023-05-10T13:36:07;2.10;;;1.70;;
2123;SDS011;1068;52.460;13.528;2023-05-10T13:38:34;2.03;;;1.83;;
2123;SDS011;1068;52.460;13.528;2023-05-10T13:41:01;1.80;;;1.70;;
2123;SDS011;1068;52.460;13.528;2023-05-10T13:43:29;3.80;;;1.90;;
2123;SDS011;1068;52.460;13.528;2023-05-10T13:45:56;1.63;;;1.53;;
2123;SDS011;1068;52.460;13.528;2023-05-10T13:48:23;2.75;;;1.90;;
2123;SDS011;1068;52.460;13.528;2023-05-10T13:50:50;3.10;;;1.50;;
2123;SDS011;1068;52.460;13.528;2023-05-10T13:53:17;5.33;;;1.90;;
2123;SDS011;1068;52.460;13.528;2023-05-10T13:55:44;4.63;;;2.27;;
2123;SDS011;1068;52.460;13.528;2023-05-10T13:58:11;5.20;;;1.77;;
2123;SDS011;1068;52.460;13.528;2023-05-10T14:00:39;1.97;;;1.87;;
2123;SDS011;1068;52.460;13.528;2023-05-10T14:03:06;3.80;;;1.80;;
2123;SDS011;1068;52.460;13.528;2023-05-10T14:05:35;2.10;;;2.00;;
2123;SDS011;1068;52.460;13.528;2023-05-10T14:08:02;3.50;;;2.13;;
2123;SDS011;1068;52.460;13.528;2023-05-10T14:10:29;4.30;;;2.10;;
2123;SDS011;1068;52.460;13.528;2023-05-10T14:12:56;5.23;;;1.80;;
2123;SDS011;1068;52.460;13.528;2023-05-10T14:15:23;3.20;;;1.60;;
2123;SDS011;1068;52.460;13.528;2023-05-10T14:17:52;4.17;;;2.53;;
2123;SDS011;1068;52.460;13.528;2023-05-10T14:20:19;10.23;;;2.40;;
2123;SDS011;1068;52.460;13.528;2023-05-10T14:22:45;2.67;;;2.43;;
2123;SDS011;1068;52.460;13.528;2023-05-10T14:25:12;2.23;;;2.10;;
2123;SDS011;1068;52.460;13.528;2023-05-10T14:27:39;2.30;;;1.90;;
2123;SDS011;1068;52.460;13.528;2023-05-10T14:30:07;2.13;;;1.73;;
2123;SDS011;1068;52.460;13.528;2023-05-10T14:32:34;2.10;;;2.00;;
2123;SDS011;1068;52.460;13.528;2023-05-10T14:35:03;3.30;;;1.67;;
2123;SDS011;1068;52.460;13.528;2023-05-10T14:37:30;1.93;;;1.73;;
2123;SDS011;1068;52.460;13.528;2023-05-10T14:39:57;2.07;;;1.63;;
2123;SDS011;1068;52.460;13.528;2023-05-10T14:42:24;2.47;;;2.27;;
2123;SDS011;1068;52.460;13.528;2023-05-10T14:44:51;2.40;;;2.00;;
2123;SDS011;1068;52.460;13.528;2023-05-10T14:47:18;2.50;;;2.03;;
2123;SDS011;1068;52.460;13.528;2023-05-10T14:49:45;3.57;;;1.80;;
2123;SDS011;1068;52.460;13.528;2023-05-10T14:52:13;1.90;;;1.80;;
2123;SDS011;1068;52.460;13.528;2023-05-10T14:54:40;2.80;;;1.93;;
2123;SDS011;1068;52.460;13.528;2023-05-10T14:57:07;3.67;;;1.90;;
2123;SDS011;1068;52.460;13.528;2023-05-10T14:59:34;6.13;;;1.90;;
2123;SDS011;1068;52.460;13.528;2023-05-10T15:02:01;2.20;;;1.83;;
2123;SDS011;1068;52.460;13.528;2023-05-10T15:04:28;2.50;;;2.00;;
2123;SDS011;1068;52.460;13.528;2023-05-10T15:06:54;2.03;;;1.80;;
2123;SDS011;1068;52.460;13.528;2023-05-10T15:09:25;3.30;;;1.60;;
2123;SDS011;1068;52.460;13.528;2023-05-10T15:11:56;2.10;;;1.90;;
2123;SDS011;1068;52.460;13.528;2023-05-10T15:14:23;3.23;;;2.00;;
2123;SDS011;1068;52.460;13.528;2023-05-10T15:16:49;2.10;;;1.53;;
2123;SDS011;1068;52.460;13.528;2023-05-10T15:19:16;1.80;;;1.70;;
2123;SDS011;1068;52.460;13.528;2023-05-10T15:21:43;4.27;;;2.10;;